sensor_id;sensor_type;location;lat;lon;timestamp;pressure;altitude;pressure_sealevel;temperature;humidity
46111;BME280;31849;55.992;37.252;2024-02-28T00:00:41;100100.66;;;-5.12;58.68
46111;BME280;31849;55.992;37.252;2024-02-28T00:05:45;100098.00;;;-5.14;58.94
46111;BME280;31849;55.992;37.252;2024-02-28T00:10:49;100094.56;;;-5.14;58.48
46111;BME280;31849;55.992;37.252;2024-02-28T00:15:54;100096.25;;;-5.26;58.89
46111;BME280;31849;55.992;37.252;2024-02-28T00:20:58;100098.44;;;-5.19;58.79
46111;BME280;31849;55.992;37.252;2024-02-28T00:26:03;100103.84;;;-5.26;59.32
46111;BME280;31849;55.992;37.252;2024-02-28T00:31:08;100097.22;;;-5.36;59.23
46111;BME280;31849;55.992;37.252;2024-02-28T00:36:12;100090.97;;;-5.30;59.27
46111;BME280;31849;55.992;37.252;2024-02-28T00:41:17;100086.53;;;-5.32;59.40
46111;BME280;31849;55.992;37.252;2024-02-28T00:46:23;100072.78;;;-5.36;59.08
46111;BME280;31849;55.992;37.252;2024-02-28T00:51:27;100075.66;;;-5.31;59.27
46111;BME280;31849;55.992;37.252;2024-02-28T00:56:31;100085.00;;;-5.30;58.98
46111;BME280;31849;55.992;37.252;2024-02-28T01:01:36;100078.06;;;-5.33;58.98
46111;BME280;31849;55.992;37.252;2024-02-28T01:06:40;100058.56;;;-5.45;59.31
46111;BME280;31849;55.992;37.252;2024-02-28T01:11:44;100077.38;;;-5.30;58.98
46111;BME280;31849;55.992;37.252;2024-02-28T01:16:49;100077.66;;;-5.51;59.66
46111;BME280;31849;55.992;37.252;2024-02-28T01:21:53;100078.75;;;-5.47;60.00
46111;BME280;31849;55.992;37.252;2024-02-28T01:26:57;100068.16;;;-5.53;59.78
46111;BME280;31849;55.992;37.252;2024-02-28T01:32:03;100073.13;;;-5.55;59.85
46111;BME280;31849;55.992;37.252;2024-02-28T01:37:07;100062.69;;;-5.59;60.12
46111;BME280;31849;55.992;37.252;2024-02-28T01:42:11;100063.88;;;-5.66;60.68
46111;BME280;31849;55.992;37.252;2024-02-28T01:47:16;100059.03;;;-5.75;60.35
46111;BME280;31849;55.992;37.252;2024-02-28T01:52:21;100059.25;;;-5.72;60.34
46111;BME280;31849;55.992;37.252;2024-02-28T01:57:25;100058.91;;;-5.65;60.52
46111;BME280;31849;55.992;37.252;2024-02-28T02:02:31;100052.53;;;-5.71;60.61
46111;BME280;31849;55.992;37.252;2024-02-28T02:07:35;100047.59;;;-5.70;60.63
46111;BME280;31849;55.992;37.252;2024-02-28T02:12:38;100040.53;;;-5.74;60.59
46111;BME280;31849;55.992;37.252;2024-02-28T02:17:44;100045.81;;;-5.83;60.61
46111;BME280;31849;55.992;37.252;2024-02-28T02:22:49;100050.00;;;-5.83;60.60
46111;BME280;31849;55.992;37.252;2024-02-28T02:27:53;100051.00;;;-5.81;60.95
46111;BME280;31849;55.992;37.252;2024-02-28T02:32:57;100050.88;;;-5.83;60.90
46111;BME280;31849;55.992;37.252;2024-02-28T02:38:03;100043.81;;;-5.87;60.98
46111;BME280;31849;55.992;37.252;2024-02-28T02:43:07;100021.16;;;-5.97;61.54
46111;BME280;31849;55.992;37.252;2024-02-28T02:48:12;100037.78;;;-5.89;61.77
46111;BME280;31849;55.992;37.252;2024-02-28T02:53:17;100037.88;;;-5.87;60.78
46111;BME280;31849;55.992;37.252;2024-02-28T02:58:21;100039.66;;;-5.86;61.39
46111;BME280;31849;55.992;37.252;2024-02-28T03:03:25;100033.69;;;-5.87;61.29
46111;BME280;31849;55.992;37.252;2024-02-28T03:08:30;100018.72;;;-5.95;61.82
46111;BME280;31849;55.992;37.252;2024-02-28T03:13:34;100027.97;;;-5.96;61.62
46111;BME280;31849;55.992;37.252;2024-02-28T03:18:38;100024.00;;;-5.92;61.83
46111;BME280;31849;55.992;37.252;2024-02-28T03:23:44;100032.50;;;-5.92;61.78
46111;BME280;31849;55.992;37.252;2024-02-28T03:28:47;100037.78;;;-5.89;62.09
46111;BME280;31849;55.992;37.252;2024-02-28T03:33:51;100033.03;;;-5.96;62.50
46111;BME280;31849;55.992;37.252;2024-02-28T03:38:57;100029.84;;;-5.93;62.26
46111;BME280;31849;55.992;37.252;2024-02-28T03:44:01;100030.94;;;-5.90;62.40
46111;BME280;31849;55.992;37.252;2024-02-28T03:49:05;100025.16;;;-6.01;62.58
46111;BME280;31849;55.992;37.252;2024-02-28T03:54:11;100021.25;;;-5.95;62.44
46111;BME280;31849;55.992;37.252;2024-02-28T03:59:15;100016.91;;;-5.98;61.99
46111;BME280;31849;55.992;37.252;2024-02-28T04:04:19;100022.41;;;-6.04;62.62
46111;BME280;31849;55.992;37.252;2024-02-28T04:09:24;100022.59;;;-6.12;63.46
46111;BME280;31849;55.992;37.252;2024-02-28T04:14:28;100008.84;;;-6.16;63.25
46111;BME280;31849;55.992;37.252;2024-02-28T04:19:33;100018.53;;;-6.10;63.45
46111;BME280;31849;55.992;37.252;2024-02-28T04:24:41;100013.91;;;-6.04;63.35
46111;BME280;31849;55.992;37.252;2024-02-28T04:29:45;100020.38;;;-5.96;63.54
46111;BME280;31849;55.992;37.252;2024-02-28T04:34:49;99998.97;;;-6.01;63.43
46111;BME280;31849;55.992;37.252;2024-02-28T04:39:54;100021.81;;;-5.76;62.47
46111;BME280;31849;55.992;37.252;2024-02-28T04:44:58;100032.59;;;-5.67;62.72
46111;BME280;31849;55.992;37.252;2024-02-28T04:50:05;100039.19;;;-5.57;63.19
46111;BME280;31849;55.992;37.252;2024-02-28T04:55:10;100046.00;;;-5.44;63.17
46111;BME280;31849;55.992;37.252;2024-02-28T05:00:15;100043.78;;;-5.27;62.62
46111;BME280;31849;55.992;37.252;2024-02-28T05:05:20;100039.50;;;-5.03;62.32
46111;BME280;31849;55.992;37.252;2024-02-28T05:10:25;100039.25;;;-4.95;61.63
46111;BME280;31849;55.992;37.252;2024-02-28T05:15:29;100036.63;;;-4.71;61.49
46111;BME280;31849;55.992;37.252;2024-02-28T05:20:33;100036.00;;;-4.55;61.10
46111;BME280;31849;55.992;37.252;2024-02-28T05:25:40;100046.63;;;-4.35;61.01
46111;BME280;31849;55.992;37.252;2024-02-28T05:30:44;100045.91;;;-4.08;60.81
46111;BME280;31849;55.992;37.252;2024-02-28T05:35:51;100045.91;;;-3.81;60.22
46111;BME280;31849;55.992;37.252;2024-02-28T05:40:57;100048.06;;;-3.74;59.97
46111;BME280;31849;55.992;37.252;2024-02-28T05:46:01;100036.91;;;-2.94;58.76
46111;BME280;31849;55.992;37.252;2024-02-28T05:51:05;100034.09;;;-2.84;57.86
46111;BME280;31849;55.992;37.252;2024-02-28T05:56:10;100032.28;;;-2.86;58.27
46111;BME280;31849;55.992;37.252;2024-02-28T06:01:17;100025.53;;;-2.71;58.20
46111;BME280;31849;55.992;37.252;2024-02-28T06:06:22;100026.25;;;-2.00;57.08
46111;BME280;31849;55.992;37.252;2024-02-28T06:11:27;100019.53;;;0.14;53.78
46111;BME280;31849;55.992;37.252;2024-02-28T06:16:31;100013.44;;;4.18;46.13
46111;BME280;31849;55.992;37.252;2024-02-28T06:21:35;100012.03;;;7.76;40.40
46111;BME280;31849;55.992;37.252;2024-02-28T06:26:40;100015.69;;;9.77;36.12
46111;BME280;31849;55.992;37.252;2024-02-28T06:31:50;100013.19;;;11.09;33.88
46111;BME280;31849;55.992;37.252;2024-02-28T06:36:54;100023.72;;;13.06;31.26
46111;BME280;31849;55.992;37.252;2024-02-28T06:42:00;100012.69;;;14.12;28.82
46111;BME280;31849;55.992;37.252;2024-02-28T06:47:04;100015.25;;;15.08;27.66
46111;BME280;31849;55.992;37.252;2024-02-28T06:52:08;100018.31;;;16.04;25.73
46111;BME280;31849;55.992;37.252;2024-02-28T06:57:13;100025.50;;;16.94;24.80
46111;BME280;31849;55.992;37.252;2024-02-28T07:02:17;100012.69;;;17.63;23.67
46111;BME280;31849;55.992;37.252;2024-02-28T07:07:21;100020.94;;;18.22;22.71
46111;BME280;31849;55.992;37.252;2024-02-28T07:12:26;100010.03;;;17.22;22.55
46111;BME280;31849;55.992;37.252;2024-02-28T07:17:31;100001.25;;;18.70;21.73
46111;BME280;31849;55.992;37.252;2024-02-28T07:22:35;100024.53;;;18.54;21.39
46111;BME280;31849;55.992;37.252;2024-02-28T07:27:41;100013.72;;;19.28;21.04
46111;BME280;31849;55.992;37.252;2024-02-28T07:32:45;100021.34;;;20.24;19.78
46111;BME280;31849;55.992;37.252;2024-02-28T07:37:53;100017.59;;;21.06;19.10
46111;BME280;31849;55.992;37.252;2024-02-28T07:42:58;100007.69;;;20.63;19.05
46111;BME280;31849;55.992;37.252;2024-02-28T07:48:02;100013.91;;;20.08;19.21
46111;BME280;31849;55.992;37.252;2024-02-28T07:53:06;99996.13;;;18.33;21.07
46111;BME280;31849;55.992;37.252;2024-02-28T07:58:11;99991.63;;;19.90;19.40
46111;BME280;31849;55.992;37.252;2024-02-28T08:03:15;99986.31;;;19.04;20.05
46111;BME280;31849;55.992;37.252;2024-02-28T08:08:20;99999.47;;;18.39;20.19
46111;BME280;31849;55.992;37.252;2024-02-28T08:13:25;99986.75;;;18.55;20.22
46111;BME280;31849;55.992;37.252;2024-02-28T08:18:30;99991.41;;;19.68;19.60
46111;BME280;31849;55.992;37.252;2024-02-28T08:23:36;99979.50;;;17.18;21.31
46111;BME280;31849;55.992;37.252;2024-02-28T08:28:42;99973.19;;;16.81;21.68
46111;BME280;31849;55.992;37.252;2024-02-28T08:33:46;99976.50;;;17.74;21.09
46111;BME280;31849;55.992;37.252;2024-02-28T08:38:50;99976.63;;;16.83;22.55
46111;BME280;31849;55.992;37.252;2024-02-28T08:43:56;99978.66;;;16.70;22.09
46111;BME280;31849;55.992;37.252;2024-02-28T08:49:00;99972.13;;;15.95;22.65
46111;BME280;31849;55.992;37.252;2024-02-28T08:54:05;99972.75;;;16.58;22.02
46111;BME280;31849;55.992;37.252;2024-02-28T08:59:11;99974.03;;;15.83;22.38
46111;BME280;31849;55.992;37.252;2024-02-28T09:04:15;99975.94;;;12.79;25.27
46111;BME280;31849;55.992;37.252;2024-02-28T09:09:19;99974.09;;;10.93;28.03
46111;BME280;31849;55.992;37.252;2024-02-28T09:14:25;99968.44;;;9.26;30.52
46111;BME280;31849;55.992;37.252;2024-02-28T09:19:29;99972.44;;;7.82;32.90
46111;BME280;31849;55.992;37.252;2024-02-28T09:24:33;99986.91;;;7.70;33.29
46111;BME280;31849;55.992;37.252;2024-02-28T09:29:40;99981.69;;;7.20;34.20
46111;BME280;31849;55.992;37.252;2024-02-28T09:34:44;99979.84;;;7.14;34.44
46111;BME280;31849;55.992;37.252;2024-02-28T09:39:48;99991.06;;;7.15;35.15
46111;BME280;31849;55.992;37.252;2024-02-28T09:44:54;99987.03;;;7.29;34.88
46111;BME280;31849;55.992;37.252;2024-02-28T09:49:58;99986.41;;;6.98;35.95
46111;BME280;31849;55.992;37.252;2024-02-28T09:55:05;99988.50;;;6.75;36.51
46111;BME280;31849;55.992;37.252;2024-02-28T10:00:13;99986.34;;;6.95;36.83
46111;BME280;31849;55.992;37.252;2024-02-28T10:05:17;99986.06;;;6.42;38.08
46111;BME280;31849;55.992;37.252;2024-02-28T10:10:22;99975.75;;;6.81;37.68
46111;BME280;31849;55.992;37.252;2024-02-28T10:15:27;99970.94;;;7.00;37.23
46111;BME280;31849;55.992;37.252;2024-02-28T10:20:31;99966.94;;;7.16;36.60
46111;BME280;31849;55.992;37.252;2024-02-28T10:25:42;99969.09;;;6.94;37.26
46111;BME280;31849;55.992;37.252;2024-02-28T10:31:00;99967.47;;;6.58;37.26
46111;BME280;31849;55.992;37.252;2024-02-28T10:36:29;99959.94;;;5.59;39.96
46111;BME280;31849;55.992;37.252;2024-02-28T10:41:35;99951.66;;;5.71;39.58
46111;BME280;31849;55.992;37.252;2024-02-28T10:46:44;99945.78;;;5.77;39.73
46111;BME280;31849;55.992;37.252;2024-02-28T10:51:49;99937.41;;;5.52;40.10
46111;BME280;31849;55.992;37.252;2024-02-28T10:56:54;99955.22;;;5.43;40.85
46111;BME280;31849;55.992;37.252;2024-02-28T11:01:59;99944.00;;;5.76;40.51
46111;BME280;31849;55.992;37.252;2024-02-28T11:07:05;99955.13;;;5.72;40.58
46111;BME280;31849;55.992;37.252;2024-02-28T11:12:24;99946.47;;;5.36;41.67
46111;BME280;31849;55.992;37.252;2024-02-28T11:17:32;99937.28;;;5.47;40.93
46111;BME280;31849;55.992;37.252;2024-02-28T11:22:36;99927.66;;;5.75;40.83
46111;BME280;31849;55.992;37.252;2024-02-28T11:27:47;99923.84;;;5.94;39.65
46111;BME280;31849;55.992;37.252;2024-02-28T11:32:54;99921.09;;;5.88;40.05
46111;BME280;31849;55.992;37.252;2024-02-28T11:38:07;99921.97;;;5.89;39.91
46111;BME280;31849;55.992;37.252;2024-02-28T11:43:12;99919.81;;;5.71;40.12
46111;BME280;31849;55.992;37.252;2024-02-28T11:48:18;99906.75;;;5.63;40.14
46111;BME280;31849;55.992;37.252;2024-02-28T11:53:24;99924.25;;;5.76;40.25
46111;BME280;31849;55.992;37.252;2024-02-28T11:58:29;99920.16;;;5.85;39.67
46111;BME280;31849;55.992;37.252;2024-02-28T12:03:34;99908.53;;;5.66;40.00
46111;BME280;31849;55.992;37.252;2024-02-28T12:08:38;99910.56;;;5.79;39.83
46111;BME280;31849;55.992;37.252;2024-02-28T12:13:42;99903.47;;;5.70;40.70
46111;BME280;31849;55.992;37.252;2024-02-28T12:18:51;99899.81;;;5.62;40.76
46111;BME280;31849;55.992;37.252;2024-02-28T12:23:56;99900.63;;;5.59;40.04
46111;BME280;31849;55.992;37.252;2024-02-28T12:29:01;99899.75;;;5.59;40.24
46111;BME280;31849;55.992;37.252;2024-02-28T12:34:25;99902.56;;;5.33;40.46
46111;BME280;31849;55.992;37.252;2024-02-28T12:39:29;99903.81;;;5.16;40.70
46111;BME280;31849;55.992;37.252;2024-02-28T12:44:33;99909.28;;;4.95;42.00
46111;BME280;31849;55.992;37.252;2024-02-28T12:49:38;99897.75;;;4.82;42.17
46111;BME280;31849;55.992;37.252;2024-02-28T12:54:43;99892.72;;;4.86;42.59
46111;BME280;31849;55.992;37.252;2024-02-28T12:59:47;99893.44;;;4.82;42.36
46111;BME280;31849;55.992;37.252;2024-02-28T13:04:54;99888.34;;;4.84;42.43
46111;BME280;31849;55.992;37.252;2024-02-28T13:09:58;99894.38;;;4.84;42.84
46111;BME280;31849;55.992;37.252;2024-02-28T13:15:05;99898.06;;;4.94;42.75
46111;BME280;31849;55.992;37.252;2024-02-28T13:20:12;99893.78;;;4.93;42.54
46111;BME280;31849;55.992;37.252;2024-02-28T13:25:16;99892.84;;;4.91;43.89
46111;BME280;31849;55.992;37.252;2024-02-28T13:30:22;99903.00;;;4.86;43.84
46111;BME280;31849;55.992;37.252;2024-02-28T13:35:27;99894.44;;;4.86;44.47
46111;BME280;31849;55.992;37.252;2024-02-28T13:40:32;99903.59;;;4.76;45.02
46111;BME280;31849;55.992;37.252;2024-02-28T13:45:37;99903.00;;;4.86;45.07
46111;BME280;31849;55.992;37.252;2024-02-28T13:50:45;99896.75;;;4.77;45.64
46111;BME280;31849;55.992;37.252;2024-02-28T13:55:49;99894.06;;;4.73;45.51
46111;BME280;31849;55.992;37.252;2024-02-28T14:00:53;99876.09;;;4.45;45.99
46111;BME280;31849;55.992;37.252;2024-02-28T14:05:59;99884.06;;;4.54;46.11
46111;BME280;31849;55.992;37.252;2024-02-28T14:11:04;99879.53;;;4.45;46.23
46111;BME280;31849;55.992;37.252;2024-02-28T14:16:08;99875.84;;;4.35;46.74
46111;BME280;31849;55.992;37.252;2024-02-28T14:21:13;99863.59;;;4.28;47.28
46111;BME280;31849;55.992;37.252;2024-02-28T14:26:17;99865.03;;;4.18;47.04
46111;BME280;31849;55.992;37.252;2024-02-28T14:31:22;99866.59;;;4.13;47.92
46111;BME280;31849;55.992;37.252;2024-02-28T14:36:27;99869.69;;;4.01;47.08
46111;BME280;31849;55.992;37.252;2024-02-28T14:41:31;99868.69;;;3.98;47.09
46111;BME280;31849;55.992;37.252;2024-02-28T14:46:37;99872.66;;;3.86;47.78
46111;BME280;31849;55.992;37.252;2024-02-28T14:51:43;99862.81;;;3.73;47.73
46111;BME280;31849;55.992;37.252;2024-02-28T14:56:51;99865.94;;;3.64;47.71
46111;BME280;31849;55.992;37.252;2024-02-28T15:01:55;99867.25;;;3.51;48.15
46111;BME280;31849;55.992;37.252;2024-02-28T15:07:00;99871.22;;;3.42;48.58
46111;BME280;31849;55.992;37.252;2024-02-28T15:12:05;99871.09;;;3.37;48.33
46111;BME280;31849;55.992;37.252;2024-02-28T15:17:09;99877.69;;;3.30;48.62
46111;BME280;31849;55.992;37.252;2024-02-28T15:22:14;99868.78;;;3.21;48.83
46111;BME280;31849;55.992;37.252;2024-02-28T15:27:18;99870.19;;;3.11;48.72
46111;BME280;31849;55.992;37.252;2024-02-28T15:32:23;99880.88;;;2.97;49.09
46111;BME280;31849;55.992;37.252;2024-02-28T15:37:29;99882.06;;;2.83;49.49
46111;BME280;31849;55.992;37.252;2024-02-28T15:42:33;99883.50;;;2.75;49.61
46111;BME280;31849;55.992;37.252;2024-02-28T15:47:37;99883.56;;;2.76;49.54
46111;BME280;31849;55.992;37.252;2024-02-28T15:52:44;99882.25;;;2.63;49.88
46111;BME280;31849;55.992;37.252;2024-02-28T15:57:48;99881.69;;;2.48;50.35
46111;BME280;31849;55.992;37.252;2024-02-28T16:02:52;99882.34;;;2.42;50.60
46111;BME280;31849;55.992;37.252;2024-02-28T16:07:58;99892.22;;;2.32;50.98
46111;BME280;31849;55.992;37.252;2024-02-28T16:13:02;99897.06;;;2.25;51.37
46111;BME280;31849;55.992;37.252;2024-02-28T16:18:23;99903.75;;;2.20;50.99
46111;BME280;31849;55.992;37.252;2024-02-28T16:23:29;99897.03;;;2.01;51.44
46111;BME280;31849;55.992;37.252;2024-02-28T16:28:33;99894.84;;;1.89;52.07
46111;BME280;31849;55.992;37.252;2024-02-28T16:33:37;99887.72;;;1.82;51.74
46111;BME280;31849;55.992;37.252;2024-02-28T16:38:44;99885.13;;;1.60;53.43
46111;BME280;31849;55.992;37.252;2024-02-28T16:43:50;99884.44;;;1.64;52.45
46111;BME280;31849;55.992;37.252;2024-02-28T16:48:57;99880.25;;;1.66;52.46
46111;BME280;31849;55.992;37.252;2024-02-28T16:54:03;99886.06;;;1.62;53.21
46111;BME280;31849;55.992;37.252;2024-02-28T16:59:08;99876.50;;;1.57;52.51
46111;BME280;31849;55.992;37.252;2024-02-28T17:04:12;99871.00;;;1.48;53.00
46111;BME280;31849;55.992;37.252;2024-02-28T17:09:19;99877.75;;;1.46;53.47
46111;BME280;31849;55.992;37.252;2024-02-28T17:14:23;99876.75;;;1.43;53.85
46111;BME280;31849;55.992;37.252;2024-02-28T17:19:27;99878.25;;;1.37;53.10
46111;BME280;31849;55.992;37.252;2024-02-28T17:24:32;99873.56;;;1.27;53.96
46111;BME280;31849;55.992;37.252;2024-02-28T17:29:37;99875.94;;;1.22;53.42
46111;BME280;31849;55.992;37.252;2024-02-28T17:34:41;99868.84;;;1.17;53.92
46111;BME280;31849;55.992;37.252;2024-02-28T17:39:52;99874.53;;;1.10;53.86
46111;BME280;31849;55.992;37.252;2024-02-28T17:44:56;99874.59;;;1.11;54.37
46111;BME280;31849;55.992;37.252;2024-02-28T17:50:00;99878.97;;;1.14;54.02
46111;BME280;31849;55.992;37.252;2024-02-28T17:55:07;99876.91;;;1.05;54.29
46111;BME280;31849;55.992;37.252;2024-02-28T18:00:12;99876.28;;;1.11;54.37
46111;BME280;31849;55.992;37.252;2024-02-28T18:05:16;99891.00;;;0.95;54.77
46111;BME280;31849;55.992;37.252;2024-02-28T18:10:21;99887.69;;;0.98;54.25
46111;BME280;31849;55.992;37.252;2024-02-28T18:15:25;99878.81;;;0.90;54.08
46111;BME280;31849;55.992;37.252;2024-02-28T18:20:29;99883.63;;;0.82;54.31
46111;BME280;31849;55.992;37.252;2024-02-28T18:25:34;99868.59;;;0.70;54.67
46111;BME280;31849;55.992;37.252;2024-02-28T18:30:38;99866.56;;;0.63;54.61
46111;BME280;31849;55.992;37.252;2024-02-28T18:35:43;99865.47;;;0.58;54.99
46111;BME280;31849;55.992;37.252;2024-02-28T18:40:48;99853.91;;;0.46;55.22
46111;BME280;31849;55.992;37.252;2024-02-28T18:45:53;99856.13;;;0.39;55.48
46111;BME280;31849;55.992;37.252;2024-02-28T18:50:56;99861.78;;;0.31;55.57
46111;BME280;31849;55.992;37.252;2024-02-28T18:56:02;99846.69;;;0.18;56.07
46111;BME280;31849;55.992;37.252;2024-02-28T19:01:06;99850.84;;;0.16;56.25
46111;BME280;31849;55.992;37.252;2024-02-28T19:06:14;99853.06;;;0.08;56.04
46111;BME280;31849;55.992;37.252;2024-02-28T19:11:21;99852.50;;;-0.04;56.01
46111;BME280;31849;55.992;37.252;2024-02-28T19:16:25;99846.13;;;-0.12;56.41
46111;BME280;31849;55.992;37.252;2024-02-28T19:21:29;99839.88;;;-0.19;56.47
46111;BME280;31849;55.992;37.252;2024-02-28T19:26:37;99837.34;;;-0.37;56.89
46111;BME280;31849;55.992;37.252;2024-02-28T19:31:41;99834.53;;;-0.42;56.84
46111;BME280;31849;55.992;37.252;2024-02-28T19:36:45;99829.72;;;-0.54;56.89
46111;BME280;31849;55.992;37.252;2024-02-28T19:41:52;99827.38;;;-0.67;57.26
46111;BME280;31849;55.992;37.252;2024-02-28T19:46:58;99826.81;;;-0.61;57.03
46111;BME280;31849;55.992;37.252;2024-02-28T19:52:03;99837.84;;;-0.62;57.00
46111;BME280;31849;55.992;37.252;2024-02-28T19:57:08;99826.50;;;-0.85;58.96
46111;BME280;31849;55.992;37.252;2024-02-28T20:02:12;99833.44;;;-0.83;57.47
46111;BME280;31849;55.992;37.252;2024-02-28T20:07:16;99836.22;;;-0.78;56.57
46111;BME280;31849;55.992;37.252;2024-02-28T20:12:21;99810.25;;;-1.04;57.95
46111;BME280;31849;55.992;37.252;2024-02-28T20:17:25;99834.94;;;-0.86;57.67
46111;BME280;31849;55.992;37.252;2024-02-28T20:22:29;99826.22;;;-0.92;57.83
46111;BME280;31849;55.992;37.252;2024-02-28T20:27:34;99838.16;;;-0.91;58.01
46111;BME280;31849;55.992;37.252;2024-02-28T20:32:38;99836.91;;;-0.99;58.24
46111;BME280;31849;55.992;37.252;2024-02-28T20:37:43;99838.91;;;-0.93;58.19
46111;BME280;31849;55.992;37.252;2024-02-28T20:42:48;99836.28;;;-0.95;58.01
46111;BME280;31849;55.992;37.252;2024-02-28T20:47:52;99842.00;;;-0.99;58.15
46111;BME280;31849;55.992;37.252;2024-02-28T20:52:56;99844.25;;;-1.05;58.44
46111;BME280;31849;55.992;37.252;2024-02-28T20:58:04;99845.34;;;-1.00;58.64
46111;BME280;31849;55.992;37.252;2024-02-28T21:03:08;99842.56;;;-1.04;58.28
46111;BME280;31849;55.992;37.252;2024-02-28T21:08:12;99844.75;;;-1.12;58.59
46111;BME280;31849;55.992;37.252;2024-02-28T21:13:17;99858.84;;;-1.19;58.89
46111;BME280;31849;55.992;37.252;2024-02-28T21:18:22;99856.91;;;-1.25;58.98
46111;BME280;31849;55.992;37.252;2024-02-28T21:23:26;99851.88;;;-1.23;59.36
46111;BME280;31849;55.992;37.252;2024-02-28T21:28:31;99852.44;;;-1.29;59.67
46111;BME280;31849;55.992;37.252;2024-02-28T21:33:35;99851.78;;;-1.25;59.19
46111;BME280;31849;55.992;37.252;2024-02-28T21:38:39;99853.22;;;-1.30;59.61
46111;BME280;31849;55.992;37.252;2024-02-28T21:43:44;99856.56;;;-1.31;59.72
46111;BME280;31849;55.992;37.252;2024-02-28T21:48:48;99857.59;;;-1.27;59.47
46111;BME280;31849;55.992;37.252;2024-02-28T21:54:06;99860.16;;;-1.27;59.47
46111;BME280;31849;55.992;37.252;2024-02-28T21:59:12;99846.94;;;-1.36;59.80
46111;BME280;31849;55.992;37.252;2024-02-28T22:04:16;99868.50;;;-1.13;59.32
46111;BME280;31849;55.992;37.252;2024-02-28T22:09:20;99863.63;;;-1.09;59.27
46111;BME280;31849;55.992;37.252;2024-02-28T22:14:25;99866.41;;;-1.04;59.22
46111;BME280;31849;55.992;37.252;2024-02-28T22:19:29;99865.00;;;-0.99;59.06
46111;BME280;31849;55.992;37.252;2024-02-28T22:24:34;99865.00;;;-0.99;58.85
46111;BME280;31849;55.992;37.252;2024-02-28T22:29:40;99867.31;;;-1.03;59.20
46111;BME280;31849;55.992;37.252;2024-02-28T22:34:44;99854.94;;;-0.96;59.01
46111;BME280;31849;55.992;37.252;2024-02-28T22:39:48;99860.09;;;-0.94;59.17
46111;BME280;31849;55.992;37.252;2024-02-28T22:44:53;99860.53;;;-1.03;59.43
46111;BME280;31849;55.992;37.252;2024-02-28T22:49:57;99865.63;;;-1.03;59.44
46111;BME280;31849;55.992;37.252;2024-02-28T22:55:01;99859.81;;;-1.00;59.27
46111;BME280;31849;55.992;37.252;2024-02-28T23:00:08;99861.91;;;-1.10;59.33
46111;BME280;31849;55.992;37.252;2024-02-28T23:05:32;99861.16;;;-1.07;59.18
46111;BME280;31849;55.992;37.252;2024-02-28T23:10:37;99861.00;;;-1.10;59.47
46111;BME280;31849;55.992;37.252;2024-02-28T23:15:42;99856.72;;;-1.11;59.87
46111;BME280;31849;55.992;37.252;2024-02-28T23:20:47;99849.47;;;-1.20;59.70
46111;BME280;31849;55.992;37.252;2024-02-28T23:25:52;99854.31;;;-1.08;59.47
46111;BME280;31849;55.992;37.252;2024-02-28T23:30:57;99847.22;;;-1.14;59.89
46111;BME280;31849;55.992;37.252;2024-02-28T23:36:01;99845.94;;;-1.22;59.67
46111;BME280;31849;55.992;37.252;2024-02-28T23:41:05;99848.50;;;-1.22;59.90
46111;BME280;31849;55.992;37.252;2024-02-28T23:46:11;99855.47;;;-1.36;60.59
46111;BME280;31849;55.992;37.252;2024-02-28T23:51:15;99841.50;;;-1.43;60.26
46111;BME280;31849;55.992;37.252;2024-02-28T23:56:20;99842.88;;;-1.49;60.60
